Time;durP1;ratioP1;P1;durP2;ratioP2;P2;SDS_P1;SDS_P2;PMS_P1;PMS_P2;Temp;Humidity;BMP_temperature;BMP_pressure;BME280_temperature;BME280_humidity;BME280_pressure;Samples;Min_cycle;Max_cycle;Signal;HPM_P1;HPM_P2
2022/09/21 00:01:13;;;;;;;6.03;5.00;;;8.40;99.90;;;;;;5033365;28;20209;-62
2022/09/21 00:03:41;;;;;;;5.55;4.60;;;8.40;99.90;;;;;;5033318;28;20208;-60
2022/09/21 00:06:10;;;;;;;8.32;5.45;;;8.40;99.90;;;;;;5033279;28;20198;-61
2022/09/21 00:08:38;;;;;;;5.38;3.92;;;8.30;99.90;;;;;;5033118;28;20305;-60
2022/09/21 00:11:07;;;;;;;6.20;4.95;;;8.30;99.90;;;;;;5033281;28;20202;-62
2022/09/21 00:13:36;;;;;;;7.90;4.65;;;8.30;99.90;;;;;;5033648;28;20210;-60
2022/09/21 00:16:05;;;;;;;8.32;4.90;;;8.30;99.90;;;;;;5033211;28;20264;-60
2022/09/21 00:18:33;;;;;;;8.13;5.05;;;8.40;99.90;;;;;;5033452;28;20232;-61
2022/09/21 00:21:00;;;;;;;10.88;6.80;;;8.40;99.90;;;;;;5033512;28;20214;-60
2022/09/21 00:23:26;;;;;;;7.22;5.22;;;8.40;99.90;;;;;;5034375;28;20198;-61
2022/09/21 00:26:04;;;;;;;11.70;5.85;;;8.40;99.90;;;;;;5035697;28;20198;-61
2022/09/21 00:28:31;;;;;;;6.60;5.97;;;8.40;99.90;;;;;;5037953;28;20222;-61
2022/09/21 00:31:02;;;;;;;8.07;4.85;;;8.40;99.90;;;;;;5039253;28;20204;-60
2022/09/21 00:33:28;;;;;;;8.50;5.35;;;8.40;99.90;;;;;;5038698;28;20190;-61
2022/09/21 00:35:55;;;;;;;10.30;6.30;;;8.30;99.90;;;;;;5038082;28;20232;-61
2022/09/21 00:38:22;;;;;;;9.80;5.40;;;8.30;99.90;;;;;;5037012;28;20229;-61
2022/09/21 00:40:48;;;;;;;12.77;5.63;;;8.30;99.90;;;;;;5036676;28;20670;-61
2022/09/21 00:43:17;;;;;;;9.15;5.70;;;8.30;99.90;;;;;;5037271;28;20210;-61
2022/09/21 00:45:46;;;;;;;10.73;5.50;;;8.30;99.90;;;;;;5037095;28;20195;-61
2022/09/21 00:48:14;;;;;;;8.30;6.05;;;8.30;99.90;;;;;;5041650;28;20236;-61
2022/09/21 00:50:49;;;;;;;7.85;6.30;;;8.20;99.90;;;;;;5039703;28;20206;-61
2022/09/21 00:53:16;;;;;;;8.27;5.55;;;8.20;99.90;;;;;;5043902;28;20196;-60
2022/09/21 00:55:45;;;;;;;9.40;6.65;;;8.20;99.90;;;;;;5046276;28;20228;-61
2022/09/21 00:58:19;;;;;;;9.48;5.65;;;8.20;99.90;;;;;;5041870;28;20222;-61
2022/09/21 01:00:46;;;;;;;7.80;5.72;;;8.10;99.90;;;;;;5042453;28;20191;-62
2022/09/21 01:03:13;;;;;;;7.75;6.03;;;8.10;99.90;;;;;;5037495;28;20207;-61
2022/09/21 01:05:40;;;;;;;7.32;5.78;;;8.10;99.90;;;;;;5037289;28;20221;-62
2022/09/21 01:08:10;;;;;;;10.13;7.13;;;8.10;99.90;;;;;;5037808;28;20702;-61
2022/09/21 01:10:45;;;;;;;10.32;6.40;;;8.10;99.90;;;;;;5038030;28;20194;-61
2022/09/21 01:13:28;;;;;;;8.10;6.07;;;8.10;99.90;;;;;;5039151;28;20191;-62
2022/09/21 01:16:05;;;;;;;9.13;6.18;;;8.10;99.90;;;;;;5039537;28;20218;-62
2022/09/21 01:18:38;;;;;;;11.05;5.78;;;8.00;99.90;;;;;;5037300;28;20226;-61
2022/09/21 01:21:18;;;;;;;8.50;5.65;;;8.00;99.90;;;;;;5036889;28;20191;-61
2022/09/21 01:24:14;;;;;;;7.68;5.60;;;8.00;99.90;;;;;;5036418;28;20191;-61
2022/09/21 01:27:19;;;;;;;8.38;6.85;;;7.90;99.90;;;;;;5036350;28;20631;-61
2022/09/21 01:29:50;;;;;;;10.48;6.80;;;7.90;99.90;;;;;;4974789;28;20228;-61
2022/09/21 01:32:22;;;;;;;12.10;6.10;;;7.80;99.90;;;;;;5023196;28;20220;-61
2022/09/21 01:34:53;;;;;;;9.32;6.55;;;7.80;99.90;;;;;;5035952;28;20249;-61
2022/09/21 01:37:24;;;;;;;13.98;7.57;;;7.80;99.90;;;;;;5035167;28;20256;-61
2022/09/21 01:39:55;;;;;;;9.73;6.65;;;7.80;99.90;;;;;;5036108;28;20222;-60
2022/09/21 01:42:26;;;;;;;8.93;6.97;;;7.80;99.90;;;;;;5036064;28;20201;-61
2022/09/21 01:44:55;;;;;;;10.60;6.68;;;7.70;99.90;;;;;;5035883;28;20178;-61
2022/09/21 01:47:24;;;;;;;12.00;6.72;;;7.70;99.90;;;;;;5035592;28;20206;-62
2022/09/21 01:49:55;;;;;;;12.63;7.68;;;7.70;99.90;;;;;;5035206;28;20230;-61
2022/09/21 01:52:28;;;;;;;8.38;6.47;;;7.70;99.90;;;;;;5035857;28;20198;-61
2022/09/21 01:55:00;;;;;;;10.35;8.18;;;7.70;99.90;;;;;;5036654;28;20213;-62
2022/09/21 01:57:34;;;;;;;10.00;7.00;;;7.60;99.90;;;;;;5035738;28;20527;-63
2022/09/21 02:00:06;;;;;;;11.52;7.07;;;7.60;99.90;;;;;;5035505;28;20193;-63
2022/09/21 02:02:39;;;;;;;9.10;7.68;;;7.60;99.90;;;;;;5035455;28;20264;-63
2022/09/21 02:05:07;;;;;;;13.25;6.40;;;7.60;99.90;;;;;;5035394;28;20186;-61
2022/09/21 02:07:35;;;;;;;10.57;6.63;;;7.60;99.90;;;;;;5035332;28;20213;-62
2022/09/21 02:10:02;;;;;;;16.98;7.32;;;;;;;;;;5035284;28;20217;-63
2022/09/21 02:12:32;;;;;;;8.07;6.65;;;;;;;;;;5035032;28;20582;-63
2022/09/21 02:14:59;;;;;;;11.18;7.40;;;;;;;;;;5035164;28;20218;-63
2022/09/21 02:17:33;;;;;;;13.57;7.88;;;;;;;;;;5035126;28;20225;-64
2022/09/21 02:20:06;;;;;;;11.02;7.20;;;;;;;;;;5035492;28;20190;-62
2022/09/21 02:22:35;;;;;;;11.15;7.32;;;;;;;;;;5034947;28;20669;-62
2022/09/21 02:25:06;;;;;;;9.23;7.95;;;;;;;;;;5035215;28;20202;-63
2022/09/21 02:27:35;;;;;;;17.15;8.45;;;;;;;;;;5034860;28;20190;-62
2022/09/21 02:30:07;;;;;;;14.65;9.18;;;;;;;;;;5035061;28;20223;-63
2022/09/21 02:32:40;;;;;;;9.60;7.63;;;;;;;;;;5035357;28;20237;-63
2022/09/21 02:35:11;;;;;;;16.85;8.90;;;;;;;;;;5036652;28;20213;-63
2022/09/21 02:37:42;;;;;;;10.70;7.40;;;;;;;;;;5046159;28;20187;-63
2022/09/21 02:40:14;;;;;;;11.65;8.07;;;;;;;;;;5043881;28;20213;-61
2022/09/21 02:42:44;;;;;;;13.38;8.95;;;;;;;;;;5038408;28;20186;-62
2022/09/21 02:45:14;;;;;;;14.18;8.20;;;;;;;;;;5035940;28;20248;-63
2022/09/21 02:47:47;;;;;;;10.02;8.20;;;;;;;;;;5034926;28;20703;-62
2022/09/21 02:50:15;;;;;;;12.18;8.60;;;;;;;;;;5033740;28;20209;-63
2022/09/21 02:52:44;;;;;;;12.65;9.15;;;;;;;;;;5034529;28;20578;-63
2022/09/21 02:55:11;;;;;;;14.93;9.57;;;;;;;;;;5034116;28;20693;-63
2022/09/21 02:57:39;;;;;;;17.10;9.13;;;;;;;;;;5034025;28;20674;-63
2022/09/21 03:00:07;;;;;;;13.15;10.38;;;;;;;;;;5034419;28;20221;-62
2022/09/21 03:02:38;;;;;;;13.23;9.00;;;;;;;;;;5034013;28;20198;-64
2022/09/21 03:05:07;;;;;;;16.20;8.10;;;;;;;;;;5034176;28;20553;-62
2022/09/21 03:07:35;;;;;;;12.60;9.18;;;;;;;;;;5034206;28;20202;-63
2022/09/21 03:10:02;;;;;;;13.13;8.85;;;;;;;;;;5034505;28;20207;-64
2022/09/21 03:12:31;;;;;;;14.25;9.40;;;;;;;;;;5034227;28;20576;-63
2022/09/21 03:14:58;;;;;;;20.15;10.20;;;;;;;;;;5034195;28;20256;-63
2022/09/21 03:17:26;;;;;;;12.70;9.90;;;;;;;;;;5034204;28;20229;-63
2022/09/21 03:19:54;;;;;;;13.52;10.40;;;;;;;;;;5034169;28;20237;-63
2022/09/21 03:22:22;;;;;;;16.15;9.23;;;;;;;;;;5034136;28;20207;-62
2022/09/21 03:24:50;;;;;;;17.45;11.25;;;;;;;;;;5033759;28;20332;-63
2022/09/21 03:27:18;;;;;;;16.60;11.52;;;;;;;;;;5033669;28;20569;-63
2022/09/21 03:29:45;;;;;;;16.00;10.65;;;;;;;;;;5034066;28;20222;-62
2022/09/21 03:32:13;;;;;;;19.25;8.75;;;;;;;;;;5033940;28;20217;-63
2022/09/21 03:34:40;;;;;;;13.75;9.02;;;;;;;;;;5033975;28;20252;-62
2022/09/21 03:37:09;;;;;;;16.17;10.45;;;;;;;;;;5034136;28;20245;-63
2022/09/21 03:39:37;;;;;;;14.73;9.30;;;;;;;;;;5033983;28;20229;-62
2022/09/21 03:42:04;;;;;;;15.98;10.73;;;;;;;;;;5033857;28;20206;-63
2022/09/21 03:44:32;;;;;;;15.27;10.95;;;;;;;;;;5033701;28;20211;-62
2022/09/21 03:46:59;;;;;;;17.73;9.80;;;;;;;;;;5033914;28;20202;-62
2022/09/21 03:49:26;;;;;;;17.33;11.32;;;;;;;;;;5034264;28;20226;-61
2022/09/21 03:51:54;;;;;;;15.85;10.18;;;;;;;;;;5033441;28;20217;-60
2022/09/21 03:54:22;;;;;;;14.80;10.10;;;;;;;;;;5033633;28;20206;-60
2022/09/21 03:56:50;;;;;;;15.75;9.88;;;;;;;;;;5033622;28;20237;-60
2022/09/21 03:59:17;;;;;;;15.20;11.23;;;;;;;;;;5033336;28;20222;-60
2022/09/21 04:01:44;;;;;;;15.02;9.52;;;;;;;;;;5032431;28;20229;-61
2022/09/21 04:04:11;;;;;;;19.35;10.75;;;;;;;;;;5033228;28;20206;-61
2022/09/21 04:06:40;;;;;;;14.55;10.40;;;;;;;;;;5033293;28;20540;-60
2022/09/21 04:10:20;;;;;;;16.30;11.52;;;;;;;;;;5090975;27;20557;-61
2022/09/21 04:12:47;;;;;;;17.75;10.93;;;;;;;;;;5091084;28;20189;-61
2022/09/21 04:15:16;;;;;;;18.17;10.85;;;;;;;;;;5091061;28;20201;-61
2022/09/21 04:17:43;;;;;;;13.63;10.10;;;;;;;;;;5091133;28;20212;-63
2022/09/21 04:20:10;;;;;;;21.90;11.80;;;;;;;;;;5091756;28;20193;-60
2022/09/21 04:22:38;;;;;;;17.30;11.57;;;;;;;;;;5090550;28;20215;-60
2022/09/21 04:25:05;;;;;;;15.65;10.85;;;;;;;;;;5090760;28;20212;-60
2022/09/21 04:27:34;;;;;;;18.98;11.70;;;;;;;;;;5090478;28;20200;-61
2022/09/21 04:30:01;;;;;;;19.83;11.98;;;;;;;;;;5090641;28;20311;-61
2022/09/21 04:32:28;;;;;;;18.08;11.65;;;;;;;;;;5090784;28;20204;-61
2022/09/21 04:34:55;;;;;;;20.48;12.88;;;;;;;;;;5091185;28;20201;-59
2022/09/21 04:37:22;;;;;;;18.42;11.00;;;;;;;;;;5088309;28;20212;-61
2022/09/21 04:39:49;;;;;;;15.60;10.82;;;;;;;;;;5073278;28;20217;-61
2022/09/21 04:42:17;;;;;;;19.15;11.95;;;;;;;;;;5079624;28;20550;-61
2022/09/21 04:44:45;;;;;;;19.75;12.50;;;;;;;;;;5093882;28;20208;-60
2022/09/21 04:47:12;;;;;;;29.95;11.93;;;;;;;;;;5091734;28;20563;-61
2022/09/21 04:49:39;;;;;;;17.02;11.10;;;;;;;;;;5083137;28;20212;-61
2022/09/21 04:52:06;;;;;;;16.17;11.82;;;;;;;;;;5085619;28;20207;-64
2022/09/21 04:54:34;;;;;;;19.45;12.60;;;;;;;;;;5081792;28;20197;-61
2022/09/21 04:57:01;;;;;;;21.17;12.10;;;;;;;;;;5082302;28;20197;-61
2022/09/21 04:59:28;;;;;;;21.25;12.25;;;;;;;;;;5070609;28;20225;-59
2022/09/21 05:01:56;;;;;;;17.02;12.00;;;;;;;;;;5075567;28;20201;-60
2022/09/21 05:04:23;;;;;;;14.93;11.40;;;;;;;;;;5076026;28;20201;-60
2022/09/21 05:06:50;;;;;;;21.67;13.23;;;;;;;;;;5084148;28;21572;-61
2022/09/21 05:12:02;;;;;;;17.70;12.00;;;;;;;;;;5090060;28;20175;-60
2022/09/21 05:14:30;;;;;;;13.75;10.70;;;;;;;;;;5082224;28;20621;-62
2022/09/21 05:16:58;;;;;;;20.00;13.50;;;;;;;;;;5076889;28;20197;-61
2022/09/21 05:19:25;;;;;;;21.10;12.65;;;;;;;;;;5070182;28;20700;-61
2022/09/21 05:21:52;;;;;;;25.52;13.15;;;;;;;;;;5074792;28;20201;-60
2022/09/21 05:24:19;;;;;;;20.48;13.43;;;;;;;;;;5077345;28;20279;-60
2022/09/21 05:26:46;;;;;;;21.38;13.23;;;;;;;;;;5076366;28;20208;-60
2022/09/21 05:29:14;;;;;;;20.35;13.60;;;;;;;;;;5073258;28;20240;-60
2022/09/21 05:31:44;;;;;;;20.75;12.63;;;;;;;;;;5067632;28;20527;-59
2022/09/21 05:34:21;;;;;;;21.85;13.05;;;;;;;;;;5056499;28;20669;-59
2022/09/21 05:36:50;;;;;;;24.08;13.40;;;;;;;;;;5071643;28;20653;-59
2022/09/21 05:39:18;;;;;;;23.27;14.43;;;;;;;;;;5076362;28;20220;-59
2022/09/21 05:41:45;;;;;;;18.92;13.65;;;;;;;;;;5076381;28;20201;-60
2022/09/21 05:44:14;;;;;;;18.30;12.95;;;;;;;;;;5076500;28;20200;-59
2022/09/21 05:46:43;;;;;;;22.20;13.85;;;;;;;;;;5076595;28;20564;-60
2022/09/21 05:49:17;;;;;;;29.27;13.30;;;;;;;;;;5058481;28;20225;-60
2022/09/21 05:51:49;;;;;;;19.63;13.30;;;;;;;;;;5056173;28;20193;-61
2022/09/21 05:54:21;;;;;;;15.77;12.73;;;;;;;;;;5058232;28;20575;-59
2022/09/21 05:56:50;;;;;;;20.33;11.93;;;;;;;;;;5067546;28;20190;-58
2022/09/21 05:59:32;;;;;;;20.27;12.75;;;;;;;;;;5056160;28;20240;-60
2022/09/21 06:02:01;;;;;;;25.83;12.60;;;;;;;;;;5074318;28;20235;-59
2022/09/21 06:04:29;;;;;;;13.60;11.73;;;;;;;;;;5078400;28;20208;-59
2022/09/21 06:06:57;;;;;;;18.60;13.32;;;;;;;;;;5078220;28;20209;-60
2022/09/21 06:09:25;;;;;;;24.40;13.15;;;;;;;;;;5077694;28;20595;-59
2022/09/21 06:11:52;;;;;;;19.13;12.88;;;;;;;;;;5072779;28;20193;-59
2022/09/21 06:14:23;;;;;;;18.42;13.57;;;;;;;;;;5059468;28;20525;-59
2022/09/21 06:16:50;;;;;;;21.27;13.73;;;;;;;;;;5059188;28;20657;-58
2022/09/21 06:19:17;;;;;;;22.80;13.10;;;;;;;;;;5075533;28;20247;-59
2022/09/21 06:21:45;;;;;;;16.05;11.65;;;;;;;;;;5074841;28;20279;-60
2022/09/21 06:24:13;;;;;;;16.25;11.00;;;;;;;;;;5061849;28;20293;-59
2022/09/21 06:26:40;;;;;;;17.77;12.38;;;;;;;;;;5056128;28;20661;-61
2022/09/21 06:29:07;;;;;;;15.60;10.80;;;;;;;;;;5055199;28;20236;-60
2022/09/21 06:31:35;;;;;;;16.08;9.98;;;;;;;;;;5066351;28;20197;-61
2022/09/21 06:34:02;;;;;;;14.30;11.25;;;;;;;;;;5055031;28;20201;-60
2022/09/21 06:36:29;;;;;;;14.55;10.88;;;;;;;;;;5060799;28;20234;-61
2022/09/21 06:38:57;;;;;;;16.02;10.40;;;;;;;;;;5075813;28;20222;-60
2022/09/21 06:41:25;;;;;;;17.80;11.40;;;;;;;;;;5074934;28;20267;-60
2022/09/21 06:43:55;;;;;;;16.58;9.82;;;;;;;;;;5077749;28;20560;-60
2022/09/21 06:46:23;;;;;;;18.40;11.48;;;;;;;;;;5084780;28;20219;-59
2022/09/21 06:48:50;;;;;;;13.23;9.45;;;;;;;;;;5064131;28;20242;-60
2022/09/21 06:51:19;;;;;;;16.10;10.32;;;;;;;;;;5054785;28;20297;-59
2022/09/21 06:53:46;;;;;;;11.25;9.38;;;;;;;;;;5054268;28;20292;-59
2022/09/21 06:56:14;;;;;;;12.57;9.65;;;;;;;;;;5063110;28;20235;-58
2022/09/21 06:58:43;;;;;;;11.82;8.80;;;;;;;;;;5057517;28;20218;-60
2022/09/21 07:01:11;;;;;;;12.10;9.40;;;;;;;;;;5057588;28;20212;-60
2022/09/21 07:03:38;;;;;;;15.18;9.57;;;;;;;;;;5068502;28;20658;-59
2022/09/21 07:06:06;;;;;;;14.40;9.77;;;;;;;;;;5053841;28;20208;-58
2022/09/21 07:08:33;;;;;;;13.05;10.20;;;;;;;;;;5053772;28;20244;-59
2022/09/21 07:11:00;;;;;;;11.13;8.68;;;;;;;;;;5054229;28;20284;-60
2022/09/21 07:13:27;;;;;;;16.20;10.82;;;;;;;;;;5053988;28;20198;-59
2022/09/21 07:15:56;;;;;;;10.40;9.23;;;;;;;;;;5054371;28;20202;-60
2022/09/21 07:18:23;;;;;;;9.73;8.30;;;;;;;;;;5053977;28;20221;-61
2022/09/21 07:20:50;;;;;;;18.48;8.90;;;;;;;;;;5054270;28;20444;-61
2022/09/21 07:23:18;;;;;;;17.02;8.60;;;;;;;;;;5054395;28;20201;-59
2022/09/21 07:25:47;;;;;;;12.73;10.37;;;;;;;;;;5071200;28;20192;-60
2022/09/21 07:28:14;;;;;;;15.67;9.93;;;;;;;;;;5075118;28;20474;-59
2022/09/21 07:30:41;;;;;;;11.67;9.10;;;;;;;;;;5074319;28;20478;-60
2022/09/21 07:33:10;;;;;;;12.80;9.90;;;;;;;;;;5074385;28;20547;-62
2022/09/21 07:35:37;;;;;;;15.80;9.93;;;;;;;;;;5073496;28;20446;-60
2022/09/21 07:38:05;;;;;;;13.57;8.70;;;;;;;;;;5065677;28;20471;-59
2022/09/21 07:40:32;;;;;;;9.83;8.67;;;;;;;;;;5073839;28;20439;-61
2022/09/21 07:43:01;;;;;;;13.80;9.00;;;;;;;;;;5060264;28;20470;-59
2022/09/21 07:45:28;;;;;;;12.67;8.20;;;;;;;;;;5054633;28;20456;-60
2022/09/21 07:47:55;;;;;;;13.80;8.50;;;;;;;;;;5055149;28;20471;-60
2022/09/21 07:50:23;;;;;;;12.50;8.13;;;6.80;99.90;;;;;;5054621;28;20472;-60
2022/09/21 07:52:51;;;;;;;14.13;8.23;;;;;;;;;;5054250;28;20456;-60
2022/09/21 07:55:18;;;;;;;11.73;8.33;;;;;;;;;;5053942;28;20444;-61
2022/09/21 08:00:31;;;;;;;12.50;8.00;;;;;;;;;;5069125;28;20419;-62
2022/09/21 08:03:00;;;;;;;13.10;8.60;;;;;;;;;;5061378;28;20452;-59
2022/09/21 08:05:28;;;;;;;15.27;7.87;;;;;;;;;;5076895;28;20493;-60
2022/09/21 08:07:56;;;;;;;10.67;8.13;;;;;;;;;;5069868;28;20464;-60
2022/09/21 08:10:23;;;;;;;9.33;7.30;;;;;;;;;;5054085;28;20499;-59
2022/09/21 08:12:50;;;;;;;11.03;7.50;;;;;;;;;;5053415;28;20505;-60
2022/09/21 08:15:17;;;;;;;10.30;8.23;;;;;;;;;;5054118;28;20452;-60
2022/09/21 08:17:44;;;;;;;11.70;7.30;;;;;;;;;;5053687;28;20444;-59
2022/09/21 08:20:12;;;;;;;10.10;7.20;;;;;;;;;;5053134;28;20447;-59
2022/09/21 08:22:41;;;;;;;6.37;5.73;;;;;;;;;;5067135;28;20778;-60
2022/09/21 08:25:09;;;;;;;6.60;4.30;;;;;;;;;;5075134;28;20446;-60
2022/09/21 08:27:41;;;;;;;10.17;4.40;;;;;;;;;;5083152;28;20483;-60
2022/09/21 08:30:09;;;;;;;6.43;4.30;;;;;;;;;;5080091;28;20508;-60
2022/09/21 08:32:36;;;;;;;9.70;5.10;;;;;;;;;;5081427;28;20451;-60
2022/09/21 08:35:03;;;;;;;8.63;4.97;;;;;;;;;;5082986;28;20855;-61
2022/09/21 08:37:32;;;;;;;9.57;5.50;;;;;;;;;;5082497;28;20517;-59
2022/09/21 08:40:01;;;;;;;8.50;5.17;;;;;;;;;;5082126;28;20439;-60
2022/09/21 08:42:35;;;;;;;9.23;5.03;;;;;;;;;;5073268;28;20630;-61
2022/09/21 08:45:06;;;;;;;6.67;4.77;;;;;;;;;;5054461;28;20512;-59
2022/09/21 08:47:36;;;;;;;4.60;3.17;;;;;;;;;;5054837;28;20436;-60
2022/09/21 08:50:04;;;;;;;6.20;3.20;;;;;;;;;;5053407;28;20468;-59
2022/09/21 08:52:32;;;;;;;5.13;3.20;;;;;;;;;;5054584;28;20566;-61
2022/09/21 08:55:03;;;;;;;8.40;3.57;;;;;;;;;;5063695;28;20547;-61
2022/09/21 08:57:31;;;;;;;4.00;2.23;;;;;;;;;;5057061;28;20527;-61
2022/09/21 08:59:59;;;;;;;7.27;3.10;;;;;;;;;;5075016;28;20499;-60
2022/09/21 09:02:50;;;;;;;6.40;3.80;;;;;;;;;;5074228;28;20443;-60
2022/09/21 09:05:32;;;;;;;8.90;4.07;;;;;;;;;;5052759;28;20448;-60
2022/09/21 09:08:18;;;;;;;5.47;2.83;;;;;;;;;;5058032;28;20493;-60
2022/09/21 09:10:52;;;;;;;3.60;3.03;;;;;;;;;;5057214;28;20971;-61
2022/09/21 09:13:28;;;;;;;12.67;2.90;;;;;;;;;;5056483;28;20907;-60
2022/09/21 09:15:59;;;;;;;6.23;2.60;;;;;;;;;;5058683;28;20436;-58
2022/09/21 09:18:29;;;;;;;10.33;3.00;;;;;;;;;;5075683;28;20497;-59
2022/09/21 09:20:58;;;;;;;5.90;2.90;;;;;;;;;;5076150;28;20549;-59
2022/09/21 09:23:27;;;;;;;4.77;3.00;;;;;;;;;;5055580;28;20795;-59
2022/09/21 09:25:58;;;;;;;5.77;2.83;;;;;;;;;;5056456;28;20509;-60
2022/09/21 09:28:29;;;;;;;4.10;2.30;;;;;;;;;;5056558;28;21046;-59
2022/09/21 09:30:59;;;;;;;5.53;2.10;;;;;;;;;;5056385;28;20486;-57
2022/09/21 09:33:28;;;;;;;7.80;2.53;;;;;;;;;;5056641;28;20447;-60
2022/09/21 09:35:58;;;;;;;7.53;2.40;;;;;;;;;;5056245;28;20523;-60
2022/09/21 09:38:28;;;;;;;9.90;2.20;;;;;;;;;;5056095;28;20464;-60
2022/09/21 09:41:08;;;;;;;6.90;2.23;;;;;;;;;;5057002;28;20448;-59
2022/09/21 09:43:42;;;;;;;3.27;1.10;;;;;;;;;;5058381;28;20436;-59
2022/09/21 09:46:15;;;;;;;3.53;1.50;;;;;;;;;;5059723;28;20446;-60
2022/09/21 09:49:07;;;;;;;3.30;1.80;;;;;;;;;;5056933;28;20471;-60
2022/09/21 09:51:35;;;;;;;4.77;1.70;;;;;;;;;;5041646;28;21000;-60
2022/09/21 09:54:03;;;;;;;4.60;1.40;;;;;;;;;;5056354;28;20447;-59
2022/09/21 09:56:33;;;;;;;3.33;2.00;;;;;;;;;;5056300;28;20448;-59
2022/09/21 09:59:06;;;;;;;3.50;1.37;;;;;;;;;;5055639;28;20468;-60
2022/09/21 10:01:37;;;;;;;4.70;2.13;;;;;;;;;;5055559;28;20841;-59
2022/09/21 10:04:06;;;;;;;7.43;1.83;;;;;;;;;;5056206;28;20817;-61
2022/09/21 10:06:33;;;;;;;7.00;1.53;;;;;;;;;;5056201;28;20458;-61
2022/09/21 10:09:00;;;;;;;6.47;1.93;;;;;;;;;;5055302;28;20553;-61
2022/09/21 10:11:37;;;;;;;5.77;2.20;;;;;;;;;;5055831;28;20518;-59
2022/09/21 10:14:08;;;;;;;7.40;1.90;;;;;;;;;;5065708;28;20447;-60
2022/09/21 10:16:40;;;;;;;3.73;2.20;;;;;;;;;;5075866;28;20522;-61
2022/09/21 10:19:14;;;;;;;4.47;1.60;;;;;;;;;;5071106;28;20491;-59
2022/09/21 10:21:43;;;;;;;7.43;1.90;;;;;;;;;;5071278;28;20431;-60
2022/09/21 10:24:16;;;;;;;3.40;1.37;;;;;;;;;;5075352;28;20451;-60
2022/09/21 10:26:48;;;;;;;2.37;1.00;;;;;;;;;;5075165;28;20438;-58
2022/09/21 10:29:21;;;;;;;4.00;1.13;;;;;;;;;;5078183;28;20459;-61
2022/09/21 10:31:55;;;;;;;6.07;1.53;;;;;;;;;;5076480;28;20475;-60
2022/09/21 10:34:23;;;;;;;4.23;1.07;;;;;;;;;;5055337;28;20498;-60
2022/09/21 10:36:51;;;;;;;5.57;1.40;;;;;;;;;;5054831;28;20456;-61
2022/09/21 10:39:19;;;;;;;3.07;1.10;;;;;;;;;;5054750;28;20498;-59
2022/09/21 10:41:50;;;;;;;4.70;1.30;;;;;;;;;;5054617;28;20451;-60
2022/09/21 10:44:18;;;;;;;2.70;1.00;;;;;;;;;;5071424;28;20463;-60
2022/09/21 10:46:46;;;;;;;5.90;1.40;;;;;;;;;;5074406;28;20963;-61
2022/09/21 10:49:16;;;;;;;1.53;0.90;;;;;;;;;;5073834;28;20478;-60
2022/09/21 10:51:45;;;;;;;4.83;1.33;;;;;;;;;;5074104;28;20474;-59
2022/09/21 10:54:15;;;;;;;1.20;0.80;;;;;;;;;;5067975;28;20448;-59
2022/09/21 10:56:53;;;;;;;1.53;0.70;;;;;;;;;;5053756;28;20955;-60
2022/09/21 10:59:24;;;;;;;3.57;0.70;;;;;;;;;;5054291;28;20467;-60
2022/09/21 11:01:52;;;;;;;1.87;0.90;;;;;;;;;;5054234;28;20449;-60
2022/09/21 11:04:31;;;;;;;2.37;0.80;;;;;;;;;;5053909;28;20827;-60
2022/09/21 11:07:01;;;;;;;2.90;1.20;;;;;;;;;;5073975;28;20435;-60
2022/09/21 11:09:32;;;;;;;3.37;1.40;;;;;;;;;;5074134;28;20479;-61
2022/09/21 11:12:04;;;;;;;2.90;1.13;;;;;;;;;;5074049;28;20493;-60
2022/09/21 11:14:39;;;;;;;5.10;1.53;;;;;;;;;;5071890;28;20534;-59
2022/09/21 11:17:09;;;;;;;4.63;1.40;;;;;;;;;;5073955;28;20427;-60
2022/09/21 11:19:39;;;;;;;2.70;0.80;;;;;;;;;;5072830;28;20471;-60
2022/09/21 11:22:09;;;;;;;3.87;1.10;;;;;;;;;;5074242;28;20439;-59
2022/09/21 11:24:39;;;;;;;3.00;1.00;;;;;;;;;;5074255;28;20454;-60
2022/09/21 11:27:10;;;;;;;2.20;1.20;;;;;;;;;;5070332;28;20442;-60
2022/09/21 11:29:41;;;;;;;4.07;1.63;;;;;;;;;;5054203;28;20884;-60
2022/09/21 11:32:22;;;;;;;2.60;1.10;;;;;;;;;;5056804;28;20459;-60
2022/09/21 11:35:07;;;;;;;4.57;1.00;;;;;;;;;;5066097;28;20435;-60
2022/09/21 11:37:41;;;;;;;3.30;1.27;;;;;;;;;;5061711;28;20455;-60
2022/09/21 11:40:15;;;;;;;2.50;1.37;;;;;;;;;;5053955;28;20432;-60
2022/09/21 11:42:49;;;;;;;3.93;1.33;;;;;;;;;;5053449;28;20861;-60
2022/09/21 11:45:25;;;;;;;2.80;1.57;;;;;;;;;;5054129;28;20436;-60
2022/09/21 11:47:59;;;;;;;2.37;1.10;;;;;;;;;;5053367;28;20464;-60
2022/09/21 11:50:34;;;;;;;5.67;1.67;;;;;;;;;;5053608;28;20423;-61
2022/09/21 11:53:11;;;;;;;6.23;1.70;;;;;;;;;;5057150;28;20443;-61
2022/09/21 11:55:47;;;;;;;2.50;1.10;;;;;;;;;;5074045;28;20793;-60
2022/09/21 11:58:19;;;;;;;2.70;1.30;;;;;;;;;;5073708;28;20462;-60
2022/09/21 12:00:56;;;;;;;4.10;1.00;;;11.00;99.90;;;;;;5073164;28;20946;-60
2022/09/21 12:03:49;;;;;;;3.17;1.20;;;17.70;54.30;;;;;;5073704;28;20458;-61
2022/09/21 12:06:31;;;;;;;2.40;1.20;;;17.60;54.30;;;;;;5056980;28;20436;-60
2022/09/21 12:09:35;;;;;;;4.13;1.40;;;17.60;54.20;;;;;;5053391;28;20517;-60
2022/09/21 12:12:09;;;;;;;2.20;1.30;;;17.70;54.10;;;;;;5049341;28;20847;-59
2022/09/21 12:14:43;;;;;;;4.40;0.90;;;18.00;54.00;;;;;;5053462;28;20428;-60
2022/09/21 12:17:21;;;;;;;2.57;1.20;;;18.20;53.60;;;;;;5053424;28;20503;-60
2022/09/21 12:19:55;;;;;;;4.43;1.23;;;18.30;53.10;;;;;;5053503;28;20460;-60
2022/09/21 12:22:26;;;;;;;2.73;0.90;;;18.20;52.40;;;;;;5059425;28;20431;-60
2022/09/21 12:24:56;;;;;;;3.30;0.97;;;18.10;52.10;;;;;;5058798;28;20896;-59
2022/09/21 12:27:28;;;;;;;3.30;1.10;;;17.90;51.60;;;;;;5053832;28;20448;-60
2022/09/21 12:30:01;;;;;;;5.00;1.80;;;17.80;51.60;;;;;;5053576;28;20971;-62
2022/09/21 12:32:43;;;;;;;4.13;1.00;;;17.70;51.70;;;;;;5058295;28;20464;-61
2022/09/21 12:35:16;;;;;;;3.33;1.43;;;17.60;51.60;;;;;;5077300;28;20495;-61
2022/09/21 12:37:47;;;;;;;2.10;1.00;;;17.60;51.50;;;;;;5076646;28;20455;-60
2022/09/21 12:40:21;;;;;;;2.93;1.00;;;17.60;51.00;;;;;;5076201;28;20530;-60
2022/09/21 12:42:52;;;;;;;2.60;0.83;;;17.70;51.00;;;;;;5075889;28;20427;-63
2022/09/21 12:45:27;;;;;;;3.97;0.97;;;18.00;51.20;;;;;;5074526;28;20450;-63
2022/09/21 12:48:02;;;;;;;3.80;1.30;;;18.40;50.90;;;;;;5056704;28;20463;-60
2022/09/21 12:50:34;;;;;;;3.17;1.07;;;18.80;50.50;;;;;;5057009;28;20886;-60
2022/09/21 12:53:02;;;;;;;1.57;0.90;;;19.00;49.50;;;;;;5056778;28;20488;-61
2022/09/21 12:55:44;;;;;;;7.57;1.10;;;19.00;48.90;;;;;;5056680;28;20451;-61
2022/09/21 12:58:24;;;;;;;3.97;1.40;;;18.90;48.90;;;;;;5056443;28;21046;-60
2022/09/21 13:01:02;;;;;;;6.63;2.37;;;18.80;49.00;;;;;;5056696;28;20429;-59
2022/09/21 13:03:35;;;;;;;3.50;1.20;;;18.70;49.00;;;;;;5056596;28;20427;-59
2022/09/21 13:06:30;;;;;;;3.90;1.00;;;18.60;49.00;;;;;;5057106;28;20436;-61
2022/09/21 13:08:59;;;;;;;3.87;0.97;;;18.70;49.00;;;;;;5056313;28;20484;-60
2022/09/21 13:11:26;;;;;;;4.87;1.10;;;18.70;48.90;;;;;;5059472;28;20476;-60
2022/09/21 13:13:58;;;;;;;1.70;1.00;;;18.70;49.10;;;;;;5058226;28;20451;-60
2022/09/21 13:16:30;;;;;;;3.47;1.50;;;18.70;49.10;;;;;;5056262;28;20428;-62
2022/09/21 13:18:59;;;;;;;4.60;1.30;;;18.80;49.30;;;;;;5056281;28;20473;-57
2022/09/21 13:21:28;;;;;;;2.90;0.80;;;19.00;49.20;;;;;;5056305;28;20451;-59
2022/09/21 13:23:57;;;;;;;5.83;1.17;;;19.00;48.50;;;;;;5056612;28;20889;-60
2022/09/21 13:26:32;;;;;;;2.43;1.00;;;18.90;48.40;;;;;;5062672;28;20454;-61
2022/09/21 13:29:26;;;;;;;3.80;1.27;;;18.80;48.70;;;;;;5076419;28;20804;-58
2022/09/21 13:31:57;;;;;;;2.03;1.10;;;18.80;48.80;;;;;;5076627;28;20920;-59
2022/09/21 13:34:33;;;;;;;1.60;0.90;;;18.60;48.70;;;;;;5075212;28;20454;-61
2022/09/21 13:37:29;;;;;;;1.43;0.90;;;18.40;48.90;;;;;;5056541;28;20526;-61
2022/09/21 13:40:38;;;;;;;3.37;1.50;;;18.30;49.10;;;;;;5056300;28;20478;-60
2022/09/21 13:43:45;;;;;;;2.50;1.17;;;18.50;49.10;;;;;;5065300;28;20498;-59
2022/09/21 13:46:50;;;;;;;3.40;0.77;;;18.60;48.40;;;;;;5076530;28;20469;-61
2022/09/21 13:49:25;;;;;;;2.73;0.90;;;18.70;48.20;;;;;;5068028;28;20467;-61
2022/09/21 13:51:59;;;;;;;1.53;0.90;;;18.70;48.10;;;;;;5055628;28;20460;-60
2022/09/21 13:54:29;;;;;;;2.67;1.20;;;18.70;47.70;;;;;;5056677;28;20433;-59
2022/09/21 13:57:17;;;;;;;3.03;0.77;;;18.70;47.60;;;;;;5055576;28;20433;-61
2022/09/21 13:59:48;;;;;;;3.63;1.00;;;18.80;47.40;;;;;;5055336;28;20470;-60
2022/09/21 14:02:31;;;;;;;2.73;1.30;;;18.90;47.30;;;;;;5059205;28;20444;-61
2022/09/21 14:05:04;;;;;;;3.00;1.00;;;19.00;47.20;;;;;;5060154;28;20441;-60
2022/09/21 14:07:33;;;;;;;2.13;1.27;;;19.20;47.30;;;;;;5055379;28;20424;-59
2022/09/21 14:10:03;;;;;;;3.63;1.20;;;19.40;47.20;;;;;;5055689;28;20480;-59
2022/09/21 14:12:37;;;;;;;3.13;1.20;;;19.50;46.40;;;;;;5059426;28;20500;-61
2022/09/21 14:15:37;;;;;;;8.63;1.40;;;19.40;46.40;;;;;;5060725;28;20447;-61
2022/09/21 14:18:20;;;;;;;4.00;1.50;;;19.30;46.40;;;;;;5059272;28;20522;-60
2022/09/21 14:21:16;;;;;;;5.27;1.00;;;19.10;46.50;;;;;;5066543;28;20439;-59
2022/09/21 14:24:20;;;;;;;8.90;1.13;;;19.10;46.80;;;;;;5055274;28;20428;-61
2022/09/21 14:26:59;;;;;;;3.10;1.20;;;19.10;46.70;;;;;;5054792;28;20485;-61